Ardmore, South Dakota
Current Conditions -  °F | °C
As of 4:53 PM on Friday 31 Oct 2014 (Local Time) from KCUT Reporting Station
Clear Clear  
Wind Chill: 37°   Ceiling: Unl
Heat Index: 42°   Visibility: 10mi
Dew Point: 28°   Wind: 8mph
Humidity: 58%   Direction: 170°S
Pressure: 30.07"   Gusts: 17mph
Location:  43.1994°N, 103.759°W
Report Text: KCUT 312253Z AUTO 17007G15KT 10SM CLR 06/M02 A3007 RMK AO2 SLP196 T00561022
Loading
Personal Weather Stations






























Interactive Weather Map
Tropical Storm Tracking
New forecast layout! Learn more

10-Day Weather Forecast

Advertisements
Track Severe Weather on mobile